Breaux Bridge, Louisiana
Current Conditions -  °F | °C
As of 2:53 PM on Friday 19 Dec 2014 (Local Time) from KLFT Reporting Station
Light Rain Light Rain  
Wind Chill: 56°   Ceiling: 500
Heat Index: 56°   Visibility: 3mi
Dew Point: 54°   Wind: 8mph
Humidity: 93%   Direction: 40°NE
Pressure: 30.03"   Gusts: NA
Location:  30.27°N, 91.9°W
Report Text: KLFT 192053Z 04007KT 3SM -RA BR OVC005 13/12 A3003 RMK AO2 CIG 004V008 SLP167 P0003 60008 T01330122 55013 $
Loading
Personal Weather Stations






























Interactive Weather Map New forecast layout! Learn more

10-Day Weather Forecast

Advertisements
Track Severe Weather on mobile